Terminal Aerodrome Forecast
Issued by NWS Tampa Bay Area, FL

Home | Current Version | Previous Version | Text Only | Print | Product List | Glossary On
Versions: 1 2 3 4 5 6 7 8 9 10 11 12 13 14
806
FTUS42 KTBW 161137
TAFFMY
TAF
KFMY 161137Z 1612/1712 09007KT P6SM SCT030 BKN060
     FM161500 11010KT P6SM BKN050
     FM170900 08004KT 5SM BR FEW005 SCT040=

USA.gov is the U.S. government's official web portal to all federal, state and local government web resources and services.